Oshtemo, Michigan
Current Conditions -  °F | °C
As of 7:53 AM on Monday 20 Oct 2014 (Local Time) from KAZO Reporting Station
Few Clouds Few Clouds  
Wind Chill: 42°   Ceiling: Unl
Heat Index: 46°   Visibility: 9mi
Dew Point: 43°   Wind: 8mph
Humidity: 89%   Direction: 180°S
Pressure: 29.82"   Gusts: NA
Location:  42.26°N, 85.68°W
Report Text: KAZO 201153Z 18007KT 9SM FEW065 08/06 A2982 RMK AO2 SLP102 60002 70002 T00780061 10094 20078 58010
Loading
Personal Weather Stations






























Interactive Weather Map
Tropical Storm Tracking
New forecast layout! Learn more

10-Day Weather Forecast

Advertisements
Track Severe Weather on mobile